sensor_id;sensor_type;location;lat;lon;timestamp;P1;durP1;ratioP1;P2;durP2;ratioP2
41966;SDS011;27656;53.068;8.818;2023-02-03T00:01:23;16.07;;;8.00;;
41966;SDS011;27656;53.068;8.818;2023-02-03T00:03:50;13.73;;;8.23;;
41966;SDS011;27656;53.068;8.818;2023-02-03T00:06:16;14.40;;;8.03;;
41966;SDS011;27656;53.068;8.818;2023-02-03T00:08:43;15.73;;;7.03;;
41966;SDS011;27656;53.068;8.818;2023-02-03T00:11:09;12.90;;;7.47;;
41966;SDS011;27656;53.068;8.818;2023-02-03T00:13:36;19.03;;;7.40;;
41966;SDS011;27656;53.068;8.818;2023-02-03T00:16:02;16.50;;;6.80;;
41966;SDS011;27656;53.068;8.818;2023-02-03T00:18:32;10.93;;;6.20;;
41966;SDS011;27656;53.068;8.818;2023-02-03T00:20:58;11.93;;;6.47;;
41966;SDS011;27656;53.068;8.818;2023-02-03T00:23:25;15.53;;;5.73;;
41966;SDS011;27656;53.068;8.818;2023-02-03T00:25:55;10.33;;;5.20;;
41966;SDS011;27656;53.068;8.818;2023-02-03T00:28:21;14.00;;;6.23;;
41966;SDS011;27656;53.068;8.818;2023-02-03T00:30:48;12.13;;;6.07;;
41966;SDS011;27656;53.068;8.818;2023-02-03T00:33:14;14.27;;;6.93;;
41966;SDS011;27656;53.068;8.818;2023-02-03T00:35:41;13.47;;;6.17;;
41966;SDS011;27656;53.068;8.818;2023-02-03T00:38:07;13.50;;;6.07;;
41966;SDS011;27656;53.068;8.818;2023-02-03T00:40:34;11.90;;;6.10;;
41966;SDS011;27656;53.068;8.818;2023-02-03T00:43:01;19.23;;;6.27;;
41966;SDS011;27656;53.068;8.818;2023-02-03T00:45:27;15.63;;;6.00;;
41966;SDS011;27656;53.068;8.818;2023-02-03T00:47:54;11.90;;;5.73;;
41966;SDS011;27656;53.068;8.818;2023-02-03T00:50:20;11.20;;;7.03;;
41966;SDS011;27656;53.068;8.818;2023-02-03T00:52:47;11.60;;;5.47;;
41966;SDS011;27656;53.068;8.818;2023-02-03T00:55:13;15.73;;;6.23;;
41966;SDS011;27656;53.068;8.818;2023-02-03T00:57:40;10.97;;;5.37;;
41966;SDS011;27656;53.068;8.818;2023-02-03T01:00:06;8.50;;;5.23;;
41966;SDS011;27656;53.068;8.818;2023-02-03T01:02:33;8.50;;;5.03;;
41966;SDS011;27656;53.068;8.818;2023-02-03T01:05:00;10.07;;;6.03;;
41966;SDS011;27656;53.068;8.818;2023-02-03T01:07:29;11.17;;;5.57;;
41966;SDS011;27656;53.068;8.818;2023-02-03T01:09:56;6.97;;;4.40;;
41966;SDS011;27656;53.068;8.818;2023-02-03T01:12:23;9.70;;;4.80;;
41966;SDS011;27656;53.068;8.818;2023-02-03T01:14:49;10.00;;;5.00;;
41966;SDS011;27656;53.068;8.818;2023-02-03T01:17:15;9.93;;;4.50;;
41966;SDS011;27656;53.068;8.818;2023-02-03T01:19:42;10.10;;;3.97;;
41966;SDS011;27656;53.068;8.818;2023-02-03T01:22:08;9.17;;;4.40;;
41966;SDS011;27656;53.068;8.818;2023-02-03T01:24:35;10.13;;;4.10;;
41966;SDS011;27656;53.068;8.818;2023-02-03T01:27:01;9.60;;;3.67;;
41966;SDS011;27656;53.068;8.818;2023-02-03T01:29:28;8.83;;;3.83;;
41966;SDS011;27656;53.068;8.818;2023-02-03T01:31:54;12.70;;;4.43;;
41966;SDS011;27656;53.068;8.818;2023-02-03T01:34:21;9.67;;;4.30;;
41966;SDS011;27656;53.068;8.818;2023-02-03T01:36:47;13.40;;;5.03;;
41966;SDS011;27656;53.068;8.818;2023-02-03T01:39:14;8.07;;;3.63;;
41966;SDS011;27656;53.068;8.818;2023-02-03T01:41:40;9.73;;;4.07;;
41966;SDS011;27656;53.068;8.818;2023-02-03T01:45:07;9.87;;;4.53;;
41966;SDS011;27656;53.068;8.818;2023-02-03T01:47:12;11.60;;;3.90;;
41966;SDS011;27656;53.068;8.818;2023-02-03T01:49:47;10.10;;;4.57;;
41966;SDS011;27656;53.068;8.818;2023-02-03T01:52:17;10.43;;;4.53;;
41966;SDS011;27656;53.068;8.818;2023-02-03T01:54:45;6.83;;;4.20;;
41966;SDS011;27656;53.068;8.818;2023-02-03T01:57:15;10.47;;;4.40;;
41966;SDS011;27656;53.068;8.818;2023-02-03T01:59:43;10.27;;;4.70;;
41966;SDS011;27656;53.068;8.818;2023-02-03T02:02:10;9.20;;;4.87;;
41966;SDS011;27656;53.068;8.818;2023-02-03T02:07:32;14.57;;;4.60;;
41966;SDS011;27656;53.068;8.818;2023-02-03T02:09:59;10.17;;;5.20;;
41966;SDS011;27656;53.068;8.818;2023-02-03T02:12:26;9.80;;;4.63;;
41966;SDS011;27656;53.068;8.818;2023-02-03T02:14:52;12.10;;;4.87;;
41966;SDS011;27656;53.068;8.818;2023-02-03T02:17:27;9.77;;;4.60;;
41966;SDS011;27656;53.068;8.818;2023-02-03T02:23:49;15.47;;;5.13;;
41966;SDS011;27656;53.068;8.818;2023-02-03T02:32:06;16.33;;;5.00;;
41966;SDS011;27656;53.068;8.818;2023-02-03T02:35:26;9.77;;;4.63;;
41966;SDS011;27656;53.068;8.818;2023-02-03T02:37:42;10.77;;;4.90;;
41966;SDS011;27656;53.068;8.818;2023-02-03T02:40:24;11.13;;;4.90;;
41966;SDS011;27656;53.068;8.818;2023-02-03T02:43:05;10.40;;;4.33;;
41966;SDS011;27656;53.068;8.818;2023-02-03T02:45:47;10.73;;;4.30;;
41966;SDS011;27656;53.068;8.818;2023-02-03T02:48:22;12.53;;;4.33;;
41966;SDS011;27656;53.068;8.818;2023-02-03T02:50:51;13.20;;;4.53;;
41966;SDS011;27656;53.068;8.818;2023-02-03T02:53:19;14.30;;;4.23;;
41966;SDS011;27656;53.068;8.818;2023-02-03T02:55:47;10.03;;;3.73;;
41966;SDS011;27656;53.068;8.818;2023-02-03T02:58:14;9.37;;;3.90;;
41966;SDS011;27656;53.068;8.818;2023-02-03T03:00:43;10.80;;;3.87;;
41966;SDS011;27656;53.068;8.818;2023-02-03T03:03:17;10.23;;;4.03;;
41966;SDS011;27656;53.068;8.818;2023-02-03T03:05:52;10.20;;;3.93;;
41966;SDS011;27656;53.068;8.818;2023-02-03T03:08:26;9.73;;;3.67;;
41966;SDS011;27656;53.068;8.818;2023-02-03T03:10:57;7.93;;;3.10;;
41966;SDS011;27656;53.068;8.818;2023-02-03T03:13:27;6.53;;;3.23;;
41966;SDS011;27656;53.068;8.818;2023-02-03T03:15:57;13.13;;;3.03;;
41966;SDS011;27656;53.068;8.818;2023-02-03T03:18:29;9.80;;;3.20;;
41966;SDS011;27656;53.068;8.818;2023-02-03T03:20:59;7.93;;;3.40;;
41966;SDS011;27656;53.068;8.818;2023-02-03T03:23:35;9.87;;;3.50;;
41966;SDS011;27656;53.068;8.818;2023-02-03T03:28:44;9.53;;;3.20;;
41966;SDS011;27656;53.068;8.818;2023-02-03T03:31:14;9.40;;;3.87;;
41966;SDS011;27656;53.068;8.818;2023-02-03T03:33:42;12.93;;;3.80;;
41966;SDS011;27656;53.068;8.818;2023-02-03T03:36:23;11.10;;;3.30;;
41966;SDS011;27656;53.068;8.818;2023-02-03T03:38:59;8.93;;;3.67;;
41966;SDS011;27656;53.068;8.818;2023-02-03T03:41:45;8.53;;;3.60;;
41966;SDS011;27656;53.068;8.818;2023-02-03T03:44:15;11.17;;;3.73;;
41966;SDS011;27656;53.068;8.818;2023-02-03T03:47:08;8.70;;;3.50;;
41966;SDS011;27656;53.068;8.818;2023-02-03T03:49:38;6.10;;;3.20;;
41966;SDS011;27656;53.068;8.818;2023-02-03T03:52:06;13.47;;;4.23;;
41966;SDS011;27656;53.068;8.818;2023-02-03T03:54:35;7.60;;;3.77;;
41966;SDS011;27656;53.068;8.818;2023-02-03T03:57:05;13.40;;;3.63;;
41966;SDS011;27656;53.068;8.818;2023-02-03T03:59:40;7.97;;;3.23;;
41966;SDS011;27656;53.068;8.818;2023-02-03T04:02:10;9.17;;;3.90;;
41966;SDS011;27656;53.068;8.818;2023-02-03T04:04:37;6.97;;;3.50;;
41966;SDS011;27656;53.068;8.818;2023-02-03T04:07:04;7.53;;;3.77;;
41966;SDS011;27656;53.068;8.818;2023-02-03T04:09:31;12.00;;;3.60;;
41966;SDS011;27656;53.068;8.818;2023-02-03T04:11:57;8.33;;;3.80;;
41966;SDS011;27656;53.068;8.818;2023-02-03T04:14:27;11.93;;;3.90;;
41966;SDS011;27656;53.068;8.818;2023-02-03T04:16:55;18.17;;;4.27;;
41966;SDS011;27656;53.068;8.818;2023-02-03T04:19:22;10.80;;;4.30;;
41966;SDS011;27656;53.068;8.818;2023-02-03T04:21:49;9.10;;;4.30;;
41966;SDS011;27656;53.068;8.818;2023-02-03T04:24:16;11.03;;;4.43;;
41966;SDS011;27656;53.068;8.818;2023-02-03T04:26:42;9.80;;;3.60;;
41966;SDS011;27656;53.068;8.818;2023-02-03T04:29:09;10.00;;;3.70;;
41966;SDS011;27656;53.068;8.818;2023-02-03T04:31:35;7.57;;;4.20;;
41966;SDS011;27656;53.068;8.818;2023-02-03T04:34:04;10.00;;;4.27;;
41966;SDS011;27656;53.068;8.818;2023-02-03T04:36:30;12.07;;;4.50;;
41966;SDS011;27656;53.068;8.818;2023-02-03T04:38:57;11.83;;;4.90;;
41966;SDS011;27656;53.068;8.818;2023-02-03T04:41:23;9.67;;;4.33;;
41966;SDS011;27656;53.068;8.818;2023-02-03T04:43:50;8.50;;;3.93;;
41966;SDS011;27656;53.068;8.818;2023-02-03T04:46:16;9.87;;;4.60;;
41966;SDS011;27656;53.068;8.818;2023-02-03T04:48:44;11.53;;;3.93;;
41966;SDS011;27656;53.068;8.818;2023-02-03T04:51:10;13.07;;;4.40;;
41966;SDS011;27656;53.068;8.818;2023-02-03T04:53:37;13.83;;;4.17;;
41966;SDS011;27656;53.068;8.818;2023-02-03T04:56:03;9.17;;;4.60;;
41966;SDS011;27656;53.068;8.818;2023-02-03T04:58:30;10.13;;;4.13;;
41966;SDS011;27656;53.068;8.818;2023-02-03T05:00:56;8.43;;;4.03;;
41966;SDS011;27656;53.068;8.818;2023-02-03T05:03:23;12.03;;;3.57;;
41966;SDS011;27656;53.068;8.818;2023-02-03T05:05:51;10.27;;;4.03;;
41966;SDS011;27656;53.068;8.818;2023-02-03T05:08:18;11.17;;;3.73;;
41966;SDS011;27656;53.068;8.818;2023-02-03T05:10:45;11.73;;;3.77;;
41966;SDS011;27656;53.068;8.818;2023-02-03T05:13:11;11.70;;;3.57;;
41966;SDS011;27656;53.068;8.818;2023-02-03T05:15:37;9.80;;;3.23;;
41966;SDS011;27656;53.068;8.818;2023-02-03T05:18:04;11.23;;;3.73;;
41966;SDS011;27656;53.068;8.818;2023-02-03T05:20:30;12.83;;;3.53;;
41966;SDS011;27656;53.068;8.818;2023-02-03T05:22:57;9.77;;;3.10;;
41966;SDS011;27656;53.068;8.818;2023-02-03T05:25:24;12.07;;;3.50;;
41966;SDS011;27656;53.068;8.818;2023-02-03T05:27:50;9.57;;;3.87;;
41966;SDS011;27656;53.068;8.818;2023-02-03T05:30:17;11.23;;;3.87;;
41966;SDS011;27656;53.068;8.818;2023-02-03T05:32:43;8.20;;;3.93;;
41966;SDS011;27656;53.068;8.818;2023-02-03T05:35:10;11.00;;;3.90;;
41966;SDS011;27656;53.068;8.818;2023-02-03T05:37:36;10.57;;;3.60;;
41966;SDS011;27656;53.068;8.818;2023-02-03T05:40:03;9.73;;;3.40;;
41966;SDS011;27656;53.068;8.818;2023-02-03T05:42:48;12.17;;;3.43;;
41966;SDS011;27656;53.068;8.818;2023-02-03T05:45:15;11.80;;;3.80;;
41966;SDS011;27656;53.068;8.818;2023-02-03T05:47:42;12.10;;;4.13;;
41966;SDS011;27656;53.068;8.818;2023-02-03T05:50:09;8.93;;;3.17;;
41966;SDS011;27656;53.068;8.818;2023-02-03T05:52:35;12.63;;;3.43;;
41966;SDS011;27656;53.068;8.818;2023-02-03T05:55:02;9.17;;;3.70;;
41966;SDS011;27656;53.068;8.818;2023-02-03T05:57:28;11.87;;;4.03;;
41966;SDS011;27656;53.068;8.818;2023-02-03T05:59:57;8.93;;;3.70;;
41966;SDS011;27656;53.068;8.818;2023-02-03T06:02:24;9.00;;;3.60;;
41966;SDS011;27656;53.068;8.818;2023-02-03T06:04:50;13.70;;;3.70;;
41966;SDS011;27656;53.068;8.818;2023-02-03T06:07:17;14.23;;;4.13;;
41966;SDS011;27656;53.068;8.818;2023-02-03T06:09:43;12.53;;;3.90;;
41966;SDS011;27656;53.068;8.818;2023-02-03T06:12:10;12.10;;;3.40;;
41966;SDS011;27656;53.068;8.818;2023-02-03T06:14:36;12.90;;;3.60;;
41966;SDS011;27656;53.068;8.818;2023-02-03T06:17:03;10.97;;;4.00;;
41966;SDS011;27656;53.068;8.818;2023-02-03T06:19:29;15.53;;;4.53;;
41966;SDS011;27656;53.068;8.818;2023-02-03T06:21:56;9.67;;;3.77;;
41966;SDS011;27656;53.068;8.818;2023-02-03T06:24:22;17.80;;;4.53;;
41966;SDS011;27656;53.068;8.818;2023-02-03T06:26:49;11.00;;;3.80;;
41966;SDS011;27656;53.068;8.818;2023-02-03T06:29:15;12.30;;;4.30;;
41966;SDS011;27656;53.068;8.818;2023-02-03T06:31:41;12.23;;;4.50;;
41966;SDS011;27656;53.068;8.818;2023-02-03T06:34:08;14.10;;;3.73;;
41966;SDS011;27656;53.068;8.818;2023-02-03T06:36:34;8.87;;;4.13;;
41966;SDS011;27656;53.068;8.818;2023-02-03T06:39:01;12.33;;;4.40;;
41966;SDS011;27656;53.068;8.818;2023-02-03T06:41:27;9.60;;;4.23;;
41966;SDS011;27656;53.068;8.818;2023-02-03T06:43:55;15.70;;;4.37;;
41966;SDS011;27656;53.068;8.818;2023-02-03T06:46:22;9.43;;;4.70;;
41966;SDS011;27656;53.068;8.818;2023-02-03T06:48:53;7.23;;;3.83;;
41966;SDS011;27656;53.068;8.818;2023-02-03T06:51:19;15.77;;;4.33;;
41966;SDS011;27656;53.068;8.818;2023-02-03T06:53:46;14.63;;;3.77;;
41966;SDS011;27656;53.068;8.818;2023-02-03T06:56:12;12.40;;;4.00;;
41966;SDS011;27656;53.068;8.818;2023-02-03T06:58:39;9.73;;;3.20;;
41966;SDS011;27656;53.068;8.818;2023-02-03T07:01:05;12.30;;;3.30;;
41966;SDS011;27656;53.068;8.818;2023-02-03T07:03:31;10.10;;;3.20;;
41966;SDS011;27656;53.068;8.818;2023-02-03T07:05:58;8.13;;;3.10;;
41966;SDS011;27656;53.068;8.818;2023-02-03T07:08:24;7.63;;;2.87;;
41966;SDS011;27656;53.068;8.818;2023-02-03T07:10:54;11.20;;;3.10;;
41966;SDS011;27656;53.068;8.818;2023-02-03T07:13:20;7.77;;;3.33;;
41966;SDS011;27656;53.068;8.818;2023-02-03T07:15:47;17.57;;;3.43;;
41966;SDS011;27656;53.068;8.818;2023-02-03T07:18:13;10.50;;;3.13;;
41966;SDS011;27656;53.068;8.818;2023-02-03T07:21:02;10.10;;;3.13;;
41966;SDS011;27656;53.068;8.818;2023-02-03T07:23:29;12.03;;;2.93;;
41966;SDS011;27656;53.068;8.818;2023-02-03T07:25:59;10.37;;;2.80;;
41966;SDS011;27656;53.068;8.818;2023-02-03T07:28:30;9.80;;;2.70;;
41966;SDS011;27656;53.068;8.818;2023-02-03T07:30:57;6.57;;;2.63;;
41966;SDS011;27656;53.068;8.818;2023-02-03T07:33:24;9.30;;;2.93;;
41966;SDS011;27656;53.068;8.818;2023-02-03T07:35:54;14.33;;;2.60;;
41966;SDS011;27656;53.068;8.818;2023-02-03T07:38:22;9.87;;;2.67;;
41966;SDS011;27656;53.068;8.818;2023-02-03T07:40:49;14.17;;;4.00;;
41966;SDS011;27656;53.068;8.818;2023-02-03T07:43:15;9.73;;;2.60;;
41966;SDS011;27656;53.068;8.818;2023-02-03T07:45:42;14.27;;;2.53;;
41966;SDS011;27656;53.068;8.818;2023-02-03T07:48:08;10.87;;;2.53;;
41966;SDS011;27656;53.068;8.818;2023-02-03T07:50:35;9.03;;;2.40;;
41966;SDS011;27656;53.068;8.818;2023-02-03T07:53:02;8.97;;;3.03;;
41966;SDS011;27656;53.068;8.818;2023-02-03T07:55:28;13.83;;;2.67;;
41966;SDS011;27656;53.068;8.818;2023-02-03T07:57:55;11.27;;;3.00;;
41966;SDS011;27656;53.068;8.818;2023-02-03T08:00:23;18.70;;;3.27;;
41966;SDS011;27656;53.068;8.818;2023-02-03T08:02:50;10.50;;;2.70;;
41966;SDS011;27656;53.068;8.818;2023-02-03T08:05:17;13.57;;;2.33;;
41966;SDS011;27656;53.068;8.818;2023-02-03T08:07:43;9.90;;;2.73;;
41966;SDS011;27656;53.068;8.818;2023-02-03T08:10:11;9.17;;;2.60;;
41966;SDS011;27656;53.068;8.818;2023-02-03T08:12:38;11.63;;;2.80;;
41966;SDS011;27656;53.068;8.818;2023-02-03T08:15:05;13.87;;;3.07;;
41966;SDS011;27656;53.068;8.818;2023-02-03T08:17:32;10.97;;;2.60;;
41966;SDS011;27656;53.068;8.818;2023-02-03T08:19:58;10.63;;;2.43;;
41966;SDS011;27656;53.068;8.818;2023-02-03T08:22:25;10.97;;;2.83;;
41966;SDS011;27656;53.068;8.818;2023-02-03T08:24:52;14.80;;;2.87;;
41966;SDS011;27656;53.068;8.818;2023-02-03T08:27:19;12.27;;;2.33;;
41966;SDS011;27656;53.068;8.818;2023-02-03T08:29:47;16.47;;;2.63;;
41966;SDS011;27656;53.068;8.818;2023-02-03T08:32:15;12.50;;;3.40;;
41966;SDS011;27656;53.068;8.818;2023-02-03T08:34:43;11.93;;;2.70;;
41966;SDS011;27656;53.068;8.818;2023-02-03T08:37:14;10.77;;;2.97;;
41966;SDS011;27656;53.068;8.818;2023-02-03T08:39:42;10.53;;;2.57;;
41966;SDS011;27656;53.068;8.818;2023-02-03T08:42:09;12.60;;;2.57;;
41966;SDS011;27656;53.068;8.818;2023-02-03T08:44:35;16.67;;;2.87;;
41966;SDS011;27656;53.068;8.818;2023-02-03T08:47:04;10.80;;;2.23;;
41966;SDS011;27656;53.068;8.818;2023-02-03T08:49:31;18.30;;;2.83;;
41966;SDS011;27656;53.068;8.818;2023-02-03T08:51:58;18.20;;;3.30;;
41966;SDS011;27656;53.068;8.818;2023-02-03T08:54:24;14.10;;;3.20;;
41966;SDS011;27656;53.068;8.818;2023-02-03T08:56:51;20.13;;;3.33;;
41966;SDS011;27656;53.068;8.818;2023-02-03T08:59:17;16.40;;;2.57;;
41966;SDS011;27656;53.068;8.818;2023-02-03T09:01:44;15.00;;;2.83;;
41966;SDS011;27656;53.068;8.818;2023-02-03T09:04:11;10.93;;;2.83;;
41966;SDS011;27656;53.068;8.818;2023-02-03T09:06:38;21.77;;;3.73;;
41966;SDS011;27656;53.068;8.818;2023-02-03T09:09:05;15.67;;;3.23;;
41966;SDS011;27656;53.068;8.818;2023-02-03T09:11:31;27.40;;;4.50;;
41966;SDS011;27656;53.068;8.818;2023-02-03T09:13:58;14.63;;;2.77;;
41966;SDS011;27656;53.068;8.818;2023-02-03T09:16:24;17.17;;;2.87;;
41966;SDS011;27656;53.068;8.818;2023-02-03T09:18:51;13.30;;;3.17;;
41966;SDS011;27656;53.068;8.818;2023-02-03T09:21:17;15.73;;;3.10;;
41966;SDS011;27656;53.068;8.818;2023-02-03T09:24:02;23.43;;;3.17;;
41966;SDS011;27656;53.068;8.818;2023-02-03T09:26:29;12.73;;;2.70;;
41966;SDS011;27656;53.068;8.818;2023-02-03T09:28:55;14.80;;;2.80;;
41966;SDS011;27656;53.068;8.818;2023-02-03T09:31:23;15.87;;;2.53;;
41966;SDS011;27656;53.068;8.818;2023-02-03T09:33:49;22.20;;;2.63;;
41966;SDS011;27656;53.068;8.818;2023-02-03T09:36:15;15.00;;;2.90;;
41966;SDS011;27656;53.068;8.818;2023-02-03T09:38:42;21.30;;;3.27;;
41966;SDS011;27656;53.068;8.818;2023-02-03T09:43:41;18.83;;;3.43;;
41966;SDS011;27656;53.068;8.818;2023-02-03T09:46:15;11.77;;;2.87;;
41966;SDS011;27656;53.068;8.818;2023-02-03T09:48:46;19.90;;;3.20;;
41966;SDS011;27656;53.068;8.818;2023-02-03T09:51:21;20.00;;;3.20;;
41966;SDS011;27656;53.068;8.818;2023-02-03T09:53:59;17.30;;;2.70;;
41966;SDS011;27656;53.068;8.818;2023-02-03T09:56:51;19.07;;;3.00;;
41966;SDS011;27656;53.068;8.818;2023-02-03T09:59:21;24.30;;;3.07;;
41966;SDS011;27656;53.068;8.818;2023-02-03T10:04:36;18.40;;;3.40;;
41966;SDS011;27656;53.068;8.818;2023-02-03T10:07:08;19.93;;;3.17;;
41966;SDS011;27656;53.068;8.818;2023-02-03T10:09:52;31.93;;;4.77;;
41966;SDS011;27656;53.068;8.818;2023-02-03T10:12:39;22.77;;;4.23;;
41966;SDS011;27656;53.068;8.818;2023-02-03T10:17:47;17.97;;;4.27;;
41966;SDS011;27656;53.068;8.818;2023-02-03T10:20:25;24.20;;;3.73;;
41966;SDS011;27656;53.068;8.818;2023-02-03T10:23:01;27.97;;;4.83;;
41966;SDS011;27656;53.068;8.818;2023-02-03T10:28:18;25.73;;;4.80;;
41966;SDS011;27656;53.068;8.818;2023-02-03T10:30:59;18.57;;;4.67;;
41966;SDS011;27656;53.068;8.818;2023-02-03T10:33:27;30.23;;;5.03;;
41966;SDS011;27656;53.068;8.818;2023-02-03T10:41:17;26.00;;;4.73;;
41966;SDS011;27656;53.068;8.818;2023-02-03T10:43:45;29.47;;;5.03;;
41966;SDS011;27656;53.068;8.818;2023-02-03T10:46:28;26.30;;;5.50;;
41966;SDS011;27656;53.068;8.818;2023-02-03T10:48:56;21.77;;;4.80;;
41966;SDS011;27656;53.068;8.818;2023-02-03T10:51:26;37.73;;;5.60;;
41966;SDS011;27656;53.068;8.818;2023-02-03T10:53:57;35.07;;;4.67;;
41966;SDS011;27656;53.068;8.818;2023-02-03T10:56:36;34.53;;;5.23;;
41966;SDS011;27656;53.068;8.818;2023-02-03T10:59:03;31.27;;;4.60;;
41966;SDS011;27656;53.068;8.818;2023-02-03T11:01:46;27.93;;;5.00;;
41966;SDS011;27656;53.068;8.818;2023-02-03T11:06:58;18.87;;;3.33;;
41966;SDS011;27656;53.068;8.818;2023-02-03T11:09:28;31.90;;;5.10;;
41966;SDS011;27656;53.068;8.818;2023-02-03T11:12:13;37.97;;;5.47;;
41966;SDS011;27656;53.068;8.818;2023-02-03T11:14:48;27.00;;;4.87;;
41966;SDS011;27656;53.068;8.818;2023-02-03T11:17:25;33.37;;;5.47;;
41966;SDS011;27656;53.068;8.818;2023-02-03T11:19:53;24.67;;;5.27;;
41966;SDS011;27656;53.068;8.818;2023-02-03T11:22:34;23.60;;;4.23;;
41966;SDS011;27656;53.068;8.818;2023-02-03T11:25:03;25.47;;;4.63;;
41966;SDS011;27656;53.068;8.818;2023-02-03T11:27:31;37.27;;;4.90;;
41966;SDS011;27656;53.068;8.818;2023-02-03T11:30:14;30.23;;;4.73;;
41966;SDS011;27656;53.068;8.818;2023-02-03T11:32:52;24.47;;;4.30;;
41966;SDS011;27656;53.068;8.818;2023-02-03T11:35:25;23.73;;;4.47;;
41966;SDS011;27656;53.068;8.818;2023-02-03T11:37:54;23.47;;;4.27;;
41966;SDS011;27656;53.068;8.818;2023-02-03T11:40:24;21.93;;;4.73;;
41966;SDS011;27656;53.068;8.818;2023-02-03T11:48:25;30.33;;;4.93;;
41966;SDS011;27656;53.068;8.818;2023-02-03T12:10:38;27.47;;;4.03;;
41966;SDS011;27656;53.068;8.818;2023-02-03T12:13:20;23.70;;;3.83;;
41966;SDS011;27656;53.068;8.818;2023-02-03T12:16:02;23.77;;;4.17;;
41966;SDS011;27656;53.068;8.818;2023-02-03T12:18:43;20.07;;;4.13;;
41966;SDS011;27656;53.068;8.818;2023-02-03T12:24:03;27.93;;;4.30;;
41966;SDS011;27656;53.068;8.818;2023-02-03T12:26:49;27.97;;;4.20;;
41966;SDS011;27656;53.068;8.818;2023-02-03T12:29:41;22.73;;;3.90;;
41966;SDS011;27656;53.068;8.818;2023-02-03T12:34:58;26.67;;;4.27;;
41966;SDS011;27656;53.068;8.818;2023-02-03T12:37:48;19.90;;;3.57;;
41966;SDS011;27656;53.068;8.818;2023-02-03T12:40:23;27.40;;;6.03;;
41966;SDS011;27656;53.068;8.818;2023-02-03T12:43:03;29.07;;;4.23;;
41966;SDS011;27656;53.068;8.818;2023-02-03T12:45:49;24.33;;;3.37;;
41966;SDS011;27656;53.068;8.818;2023-02-03T12:48:19;30.20;;;3.83;;
41966;SDS011;27656;53.068;8.818;2023-02-03T12:50:52;27.13;;;4.40;;
41966;SDS011;27656;53.068;8.818;2023-02-03T12:53:26;21.73;;;4.23;;
41966;SDS011;27656;53.068;8.818;2023-02-03T12:55:58;24.80;;;4.33;;
41966;SDS011;27656;53.068;8.818;2023-02-03T12:58:30;25.60;;;3.80;;
41966;SDS011;27656;53.068;8.818;2023-02-03T13:01:11;22.63;;;3.40;;
41966;SDS011;27656;53.068;8.818;2023-02-03T13:03:50;21.83;;;3.77;;
41966;SDS011;27656;53.068;8.818;2023-02-03T13:12:10;19.57;;;3.47;;
41966;SDS011;27656;53.068;8.818;2023-02-03T13:20:24;19.87;;;4.47;;
41966;SDS011;27656;53.068;8.818;2023-02-03T13:22:45;20.23;;;3.70;;
41966;SDS011;27656;53.068;8.818;2023-02-03T13:33:12;47.00;;;3.77;;
41966;SDS011;27656;53.068;8.818;2023-02-03T13:36:19;28.53;;;5.30;;
41966;SDS011;27656;53.068;8.818;2023-02-03T13:41:53;27.77;;;4.00;;
41966;SDS011;27656;53.068;8.818;2023-02-03T13:44:26;29.27;;;4.30;;
41966;SDS011;27656;53.068;8.818;2023-02-03T13:46:54;32.13;;;4.53;;
41966;SDS011;27656;53.068;8.818;2023-02-03T13:49:32;20.20;;;4.50;;
41966;SDS011;27656;53.068;8.818;2023-02-03T13:51:59;20.17;;;4.60;;
41966;SDS011;27656;53.068;8.818;2023-02-03T13:54:31;25.53;;;4.20;;
41966;SDS011;27656;53.068;8.818;2023-02-03T13:57:00;21.30;;;4.13;;
41966;SDS011;27656;53.068;8.818;2023-02-03T13:59:39;25.90;;;4.10;;
41966;SDS011;27656;53.068;8.818;2023-02-03T14:04:50;21.13;;;3.50;;
41966;SDS011;27656;53.068;8.818;2023-02-03T14:07:29;30.73;;;4.87;;
41966;SDS011;27656;53.068;8.818;2023-02-03T14:10:12;19.70;;;3.77;;
41966;SDS011;27656;53.068;8.818;2023-02-03T14:17:54;26.77;;;5.27;;
41966;SDS011;27656;53.068;8.818;2023-02-03T14:25:33;24.10;;;4.60;;
41966;SDS011;27656;53.068;8.818;2023-02-03T14:28:07;19.67;;;3.50;;
41966;SDS011;27656;53.068;8.818;2023-02-03T14:31:00;24.63;;;4.50;;
41966;SDS011;27656;53.068;8.818;2023-02-03T14:33:48;24.13;;;3.90;;
41966;SDS011;27656;53.068;8.818;2023-02-03T14:41:53;22.13;;;3.87;;
41966;SDS011;27656;53.068;8.818;2023-02-03T14:47:06;25.77;;;5.00;;
41966;SDS011;27656;53.068;8.818;2023-02-03T14:58:03;23.53;;;4.17;;
41966;SDS011;27656;53.068;8.818;2023-02-03T15:00:33;19.60;;;3.63;;
41966;SDS011;27656;53.068;8.818;2023-02-03T15:05:43;18.87;;;3.73;;
41966;SDS011;27656;53.068;8.818;2023-02-03T15:13:47;23.37;;;5.00;;
41966;SDS011;27656;53.068;8.818;2023-02-03T15:16:17;22.80;;;3.83;;
41966;SDS011;27656;53.068;8.818;2023-02-03T15:18:45;18.40;;;4.17;;
41966;SDS011;27656;53.068;8.818;2023-02-03T15:21:18;25.83;;;4.30;;
41966;SDS011;27656;53.068;8.818;2023-02-03T15:23:45;24.23;;;4.97;;
41966;SDS011;27656;53.068;8.818;2023-02-03T15:26:18;19.23;;;4.47;;
41966;SDS011;27656;53.068;8.818;2023-02-03T15:28:52;20.83;;;4.07;;
41966;SDS011;27656;53.068;8.818;2023-02-03T15:31:30;21.37;;;3.97;;
41966;SDS011;27656;53.068;8.818;2023-02-03T15:34:02;28.33;;;3.90;;
41966;SDS011;27656;53.068;8.818;2023-02-03T15:36:49;26.03;;;3.90;;
41966;SDS011;27656;53.068;8.818;2023-02-03T15:39:22;24.87;;;4.00;;
41966;SDS011;27656;53.068;8.818;2023-02-03T15:41:52;22.67;;;4.30;;
41966;SDS011;27656;53.068;8.818;2023-02-03T15:44:34;18.63;;;3.97;;
41966;SDS011;27656;53.068;8.818;2023-02-03T15:47:17;28.43;;;3.80;;
41966;SDS011;27656;53.068;8.818;2023-02-03T15:49:46;25.57;;;4.10;;
41966;SDS011;27656;53.068;8.818;2023-02-03T15:52:19;19.03;;;4.07;;
41966;SDS011;27656;53.068;8.818;2023-02-03T15:54:48;32.13;;;4.70;;
41966;SDS011;27656;53.068;8.818;2023-02-03T15:57:23;28.97;;;3.93;;
41966;SDS011;27656;53.068;8.818;2023-02-03T15:59:53;26.60;;;4.57;;
41966;SDS011;27656;53.068;8.818;2023-02-03T16:02:25;28.47;;;4.43;;
41966;SDS011;27656;53.068;8.818;2023-02-03T16:04:54;29.77;;;5.53;;
41966;SDS011;27656;53.068;8.818;2023-02-03T16:07:24;27.37;;;5.03;;
41966;SDS011;27656;53.068;8.818;2023-02-03T16:09:53;20.20;;;4.60;;
41966;SDS011;27656;53.068;8.818;2023-02-03T16:12:24;25.70;;;5.03;;
41966;SDS011;27656;53.068;8.818;2023-02-03T16:14:53;37.33;;;5.23;;
41966;SDS011;27656;53.068;8.818;2023-02-03T16:17:34;35.57;;;4.97;;
41966;SDS011;27656;53.068;8.818;2023-02-03T16:20:19;28.93;;;5.13;;
41966;SDS011;27656;53.068;8.818;2023-02-03T16:23:01;30.37;;;4.80;;
41966;SDS011;27656;53.068;8.818;2023-02-03T16:25:41;35.10;;;4.90;;
41966;SDS011;27656;53.068;8.818;2023-02-03T16:33:55;38.10;;;5.43;;
41966;SDS011;27656;53.068;8.818;2023-02-03T16:36:42;31.83;;;4.70;;
41966;SDS011;27656;53.068;8.818;2023-02-03T16:39:28;24.40;;;4.07;;
41966;SDS011;27656;53.068;8.818;2023-02-03T16:42:17;38.73;;;4.63;;
41966;SDS011;27656;53.068;8.818;2023-02-03T16:45:14;29.57;;;4.80;;
41966;SDS011;27656;53.068;8.818;2023-02-03T16:48:01;30.07;;;5.37;;
41966;SDS011;27656;53.068;8.818;2023-02-03T16:50:47;38.47;;;5.93;;
41966;SDS011;27656;53.068;8.818;2023-02-03T16:53:25;30.77;;;5.07;;
41966;SDS011;27656;53.068;8.818;2023-02-03T16:55:54;27.43;;;5.70;;
41966;SDS011;27656;53.068;8.818;2023-02-03T16:58:21;34.23;;;4.10;;
41966;SDS011;27656;53.068;8.818;2023-02-03T17:00:48;24.77;;;4.47;;
41966;SDS011;27656;53.068;8.818;2023-02-03T17:03:18;26.87;;;4.63;;
41966;SDS011;27656;53.068;8.818;2023-02-03T17:05:48;31.80;;;5.87;;
41966;SDS011;27656;53.068;8.818;2023-02-03T17:08:16;35.93;;;6.70;;
41966;SDS011;27656;53.068;8.818;2023-02-03T17:10:45;28.37;;;5.37;;